sensor_id;sensor_type;location;lat;lon;timestamp;pressure;altitude;pressure_sealevel;temperature;humidity
61484;BME280;47349;55.640;37.692;2023-03-01T00:00:41;98442.88;;;-4.90;61.34
61484;BME280;47349;55.640;37.692;2023-03-01T00:03:08;98445.72;;;-4.93;61.68
61484;BME280;47349;55.640;37.692;2023-03-01T00:05:35;98439.75;;;-4.95;61.42
61484;BME280;47349;55.640;37.692;2023-03-01T00:08:03;98437.28;;;-4.97;61.75
61484;BME280;47349;55.640;37.692;2023-03-01T00:10:31;98442.81;;;-5.01;61.13
61484;BME280;47349;55.640;37.692;2023-03-01T00:12:58;98442.06;;;-5.03;61.17
61484;BME280;47349;55.640;37.692;2023-03-01T00:15:25;98441.25;;;-5.04;60.93
61484;BME280;47349;55.640;37.692;2023-03-01T00:17:52;98447.03;;;-5.11;62.00
61484;BME280;47349;55.640;37.692;2023-03-01T00:20:19;98430.59;;;-5.13;61.67
61484;BME280;47349;55.640;37.692;2023-03-01T00:22:47;98431.69;;;-5.16;61.85
61484;BME280;47349;55.640;37.692;2023-03-01T00:25:15;98437.72;;;-5.15;61.03
61484;BME280;47349;55.640;37.692;2023-03-01T00:27:42;98439.41;;;-5.14;61.31
61484;BME280;47349;55.640;37.692;2023-03-01T00:30:09;98437.00;;;-5.18;61.80
61484;BME280;47349;55.640;37.692;2023-03-01T00:32:36;98433.22;;;-5.13;61.16
61484;BME280;47349;55.640;37.692;2023-03-01T00:35:04;98437.94;;;-5.19;61.06
61484;BME280;47349;55.640;37.692;2023-03-01T00:37:32;98441.94;;;-5.26;61.86
61484;BME280;47349;55.640;37.692;2023-03-01T00:40:00;98438.19;;;-5.22;61.81
61484;BME280;47349;55.640;37.692;2023-03-01T00:42:28;98419.88;;;-5.22;61.74
61484;BME280;47349;55.640;37.692;2023-03-01T00:44:55;98424.59;;;-5.27;62.19
61484;BME280;47349;55.640;37.692;2023-03-01T00:47:22;98425.00;;;-5.20;61.70
61484;BME280;47349;55.640;37.692;2023-03-01T00:49:49;98441.69;;;-5.23;61.49
61484;BME280;47349;55.640;37.692;2023-03-01T00:52:21;98422.50;;;-5.22;62.17
61484;BME280;47349;55.640;37.692;2023-03-01T00:54:52;98441.19;;;-5.28;62.36
61484;BME280;47349;55.640;37.692;2023-03-01T00:57:20;98429.09;;;-5.29;61.81
61484;BME280;47349;55.640;37.692;2023-03-01T00:59:47;98415.41;;;-5.32;62.71
61484;BME280;47349;55.640;37.692;2023-03-01T01:02:14;98435.25;;;-5.30;62.76
61484;BME280;47349;55.640;37.692;2023-03-01T01:04:43;98422.50;;;-5.34;62.18
61484;BME280;47349;55.640;37.692;2023-03-01T01:07:24;98427.53;;;-5.31;62.06
61484;BME280;47349;55.640;37.692;2023-03-01T01:09:51;98453.84;;;-5.34;62.74
61484;BME280;47349;55.640;37.692;2023-03-01T01:12:19;98439.97;;;-5.35;62.27
61484;BME280;47349;55.640;37.692;2023-03-01T01:14:46;98434.09;;;-5.38;62.19
61484;BME280;47349;55.640;37.692;2023-03-01T01:17:13;98438.31;;;-5.36;62.48
61484;BME280;47349;55.640;37.692;2023-03-01T01:19:41;98439.00;;;-5.34;62.56
61484;BME280;47349;55.640;37.692;2023-03-01T01:22:08;98449.56;;;-5.35;62.35
61484;BME280;47349;55.640;37.692;2023-03-01T01:24:36;98449.34;;;-5.32;62.47
61484;BME280;47349;55.640;37.692;2023-03-01T01:27:02;98453.44;;;-5.41;62.82
61484;BME280;47349;55.640;37.692;2023-03-01T01:29:43;98414.38;;;-5.43;63.30
61484;BME280;47349;55.640;37.692;2023-03-01T01:32:11;98422.31;;;-5.44;62.97
61484;BME280;47349;55.640;37.692;2023-03-01T01:34:38;98429.44;;;-5.46;63.59
61484;BME280;47349;55.640;37.692;2023-03-01T01:37:05;98424.84;;;-5.55;64.25
61484;BME280;47349;55.640;37.692;2023-03-01T01:39:48;98429.31;;;-5.57;64.21
61484;BME280;47349;55.640;37.692;2023-03-01T01:42:16;98446.88;;;-5.59;64.43
61484;BME280;47349;55.640;37.692;2023-03-01T01:44:45;98429.56;;;-5.60;64.65
61484;BME280;47349;55.640;37.692;2023-03-01T01:47:14;98432.16;;;-5.60;65.00
61484;BME280;47349;55.640;37.692;2023-03-01T01:49:56;98441.66;;;-5.59;65.30
61484;BME280;47349;55.640;37.692;2023-03-01T01:52:27;98437.25;;;-5.72;65.56
61484;BME280;47349;55.640;37.692;2023-03-01T01:55:05;98429.44;;;-5.72;66.14
61484;BME280;47349;55.640;37.692;2023-03-01T01:57:48;98437.69;;;-5.78;66.13
61484;BME280;47349;55.640;37.692;2023-03-01T02:00:24;98435.50;;;-5.84;67.11
61484;BME280;47349;55.640;37.692;2023-03-01T02:03:03;98414.31;;;-5.79;66.78
61484;BME280;47349;55.640;37.692;2023-03-01T02:05:38;98428.19;;;-5.79;66.63
61484;BME280;47349;55.640;37.692;2023-03-01T02:08:06;98457.84;;;-5.80;67.13
61484;BME280;47349;55.640;37.692;2023-03-01T02:10:35;98426.31;;;-5.77;66.89
61484;BME280;47349;55.640;37.692;2023-03-01T02:13:22;98436.97;;;-5.80;66.09
61484;BME280;47349;55.640;37.692;2023-03-01T02:16:10;98463.25;;;-5.83;66.39
61484;BME280;47349;55.640;37.692;2023-03-01T02:18:38;98427.44;;;-5.81;66.21
61484;BME280;47349;55.640;37.692;2023-03-01T02:23:56;98445.94;;;-5.84;66.54
61484;BME280;47349;55.640;37.692;2023-03-01T02:28:58;98431.94;;;-5.83;67.34
61484;BME280;47349;55.640;37.692;2023-03-01T02:31:25;98438.50;;;-5.90;67.68
61484;BME280;47349;55.640;37.692;2023-03-01T02:36:39;98443.44;;;-5.98;68.01
61484;BME280;47349;55.640;37.692;2023-03-01T02:39:09;98460.34;;;-6.04;68.35
61484;BME280;47349;55.640;37.692;2023-03-01T02:41:41;98459.28;;;-6.01;68.16
61484;BME280;47349;55.640;37.692;2023-03-01T02:44:09;98446.66;;;-6.07;68.12
61484;BME280;47349;55.640;37.692;2023-03-01T02:46:48;98449.28;;;-6.07;68.46
61484;BME280;47349;55.640;37.692;2023-03-01T02:49:18;98438.19;;;-6.11;68.92
61484;BME280;47349;55.640;37.692;2023-03-01T02:54:28;98440.91;;;-6.12;69.02
61484;BME280;47349;55.640;37.692;2023-03-01T02:56:57;98453.63;;;-6.21;69.78
61484;BME280;47349;55.640;37.692;2023-03-01T02:59:38;98460.91;;;-6.26;70.12
61484;BME280;47349;55.640;37.692;2023-03-01T03:02:25;98455.59;;;-6.24;69.77
61484;BME280;47349;55.640;37.692;2023-03-01T03:05:25;98462.03;;;-6.30;70.50
61484;BME280;47349;55.640;37.692;2023-03-01T03:07:56;98454.22;;;-6.30;70.23
61484;BME280;47349;55.640;37.692;2023-03-01T03:10:28;98456.94;;;-6.31;70.07
61484;BME280;47349;55.640;37.692;2023-03-01T03:12:58;98456.00;;;-6.30;70.99
61484;BME280;47349;55.640;37.692;2023-03-01T03:15:26;98458.19;;;-6.37;70.38
61484;BME280;47349;55.640;37.692;2023-03-01T03:18:05;98442.72;;;-6.40;70.79
61484;BME280;47349;55.640;37.692;2023-03-01T03:20:33;98445.34;;;-6.40;70.92
61484;BME280;47349;55.640;37.692;2023-03-01T03:23:00;98449.59;;;-6.39;70.75
61484;BME280;47349;55.640;37.692;2023-03-01T03:25:28;98454.94;;;-6.40;71.37
61484;BME280;47349;55.640;37.692;2023-03-01T03:27:55;98447.13;;;-6.40;71.76
61484;BME280;47349;55.640;37.692;2023-03-01T03:30:27;98458.97;;;-6.49;71.25
61484;BME280;47349;55.640;37.692;2023-03-01T03:32:54;98451.06;;;-6.48;71.18
61484;BME280;47349;55.640;37.692;2023-03-01T03:35:23;98466.88;;;-6.51;71.60
61484;BME280;47349;55.640;37.692;2023-03-01T03:37:51;98462.91;;;-6.56;71.33
61484;BME280;47349;55.640;37.692;2023-03-01T03:40:38;98450.59;;;-6.54;72.39
61484;BME280;47349;55.640;37.692;2023-03-01T03:43:07;98469.69;;;-6.54;72.08
61484;BME280;47349;55.640;37.692;2023-03-01T03:45:34;98485.63;;;-6.58;71.75
61484;BME280;47349;55.640;37.692;2023-03-01T03:48:02;98478.91;;;-6.62;72.25
61484;BME280;47349;55.640;37.692;2023-03-01T03:50:29;98443.78;;;-6.69;72.48
61484;BME280;47349;55.640;37.692;2023-03-01T03:53:00;98470.38;;;-6.64;72.98
61484;BME280;47349;55.640;37.692;2023-03-01T03:55:27;98479.31;;;-6.68;73.12
61484;BME280;47349;55.640;37.692;2023-03-01T03:57:58;98470.78;;;-6.70;73.61
61484;BME280;47349;55.640;37.692;2023-03-01T04:00:28;98478.66;;;-6.72;73.22
61484;BME280;47349;55.640;37.692;2023-03-01T04:02:56;98475.22;;;-6.73;73.27
61484;BME280;47349;55.640;37.692;2023-03-01T04:05:23;98469.28;;;-6.75;73.30
61484;BME280;47349;55.640;37.692;2023-03-01T04:07:50;98481.50;;;-6.75;73.89
61484;BME280;47349;55.640;37.692;2023-03-01T04:10:32;98476.38;;;-6.77;73.51
61484;BME280;47349;55.640;37.692;2023-03-01T04:12:59;98481.38;;;-6.74;73.96
61484;BME280;47349;55.640;37.692;2023-03-01T04:15:26;98504.09;;;-6.76;73.66
61484;BME280;47349;55.640;37.692;2023-03-01T04:17:54;98478.06;;;-6.76;73.46
61484;BME280;47349;55.640;37.692;2023-03-01T04:20:23;98481.03;;;-6.82;73.54
61484;BME280;47349;55.640;37.692;2023-03-01T04:25:41;98474.34;;;-6.86;74.66
61484;BME280;47349;55.640;37.692;2023-03-01T04:28:09;98509.69;;;-6.82;74.46
61484;BME280;47349;55.640;37.692;2023-03-01T04:30:37;98488.22;;;-6.85;74.15
61484;BME280;47349;55.640;37.692;2023-03-01T04:33:05;98512.66;;;-6.88;74.18
61484;BME280;47349;55.640;37.692;2023-03-01T04:35:34;98495.91;;;-6.84;74.91
61484;BME280;47349;55.640;37.692;2023-03-01T04:38:02;98490.72;;;-6.84;74.73
61484;BME280;47349;55.640;37.692;2023-03-01T04:40:31;98480.84;;;-6.79;73.98
61484;BME280;47349;55.640;37.692;2023-03-01T04:42:58;98491.38;;;-6.80;74.65
61484;BME280;47349;55.640;37.692;2023-03-01T04:45:26;98497.50;;;-6.81;74.88
61484;BME280;47349;55.640;37.692;2023-03-01T04:47:53;98479.16;;;-6.80;75.23
61484;BME280;47349;55.640;37.692;2023-03-01T04:50:20;98510.63;;;-6.83;74.92
61484;BME280;47349;55.640;37.692;2023-03-01T04:52:48;98526.06;;;-6.80;74.47
61484;BME280;47349;55.640;37.692;2023-03-01T04:55:15;98505.31;;;-6.81;75.06
61484;BME280;47349;55.640;37.692;2023-03-01T04:57:42;98493.69;;;-6.76;74.91
61484;BME280;47349;55.640;37.692;2023-03-01T05:00:11;98546.91;;;-6.80;74.75
61484;BME280;47349;55.640;37.692;2023-03-01T05:02:50;98497.22;;;-6.77;75.33
61484;BME280;47349;55.640;37.692;2023-03-01T05:05:34;98512.09;;;-6.79;74.52
61484;BME280;47349;55.640;37.692;2023-03-01T05:08:11;98511.91;;;-6.76;75.04
61484;BME280;47349;55.640;37.692;2023-03-01T05:10:45;98535.53;;;-6.79;75.59
61484;BME280;47349;55.640;37.692;2023-03-01T05:13:14;98503.44;;;-6.79;75.09
61484;BME280;47349;55.640;37.692;2023-03-01T05:16:01;98517.56;;;-6.69;75.27
61484;BME280;47349;55.640;37.692;2023-03-01T05:18:29;98516.09;;;-6.73;74.60
61484;BME280;47349;55.640;37.692;2023-03-01T05:21:07;98525.50;;;-6.70;74.76
61484;BME280;47349;55.640;37.692;2023-03-01T05:23:36;98524.13;;;-6.76;75.05
61484;BME280;47349;55.640;37.692;2023-03-01T05:26:17;98530.34;;;-6.79;75.33
61484;BME280;47349;55.640;37.692;2023-03-01T05:28:54;98518.69;;;-6.73;75.55
61484;BME280;47349;55.640;37.692;2023-03-01T05:31:45;98523.13;;;-6.61;74.47
61484;BME280;47349;55.640;37.692;2023-03-01T05:34:13;98529.28;;;-6.62;74.46
61484;BME280;47349;55.640;37.692;2023-03-01T05:36:40;98529.63;;;-6.54;74.91
61484;BME280;47349;55.640;37.692;2023-03-01T05:39:08;98522.44;;;-6.50;74.36
61484;BME280;47349;55.640;37.692;2023-03-01T05:41:35;98540.69;;;-6.50;74.41
61484;BME280;47349;55.640;37.692;2023-03-01T05:44:02;98537.56;;;-6.55;74.38
61484;BME280;47349;55.640;37.692;2023-03-01T05:46:46;98524.13;;;-6.49;74.90
61484;BME280;47349;55.640;37.692;2023-03-01T05:49:13;98533.41;;;-6.45;75.10
61484;BME280;47349;55.640;37.692;2023-03-01T05:51:41;98527.81;;;-6.39;74.26
61484;BME280;47349;55.640;37.692;2023-03-01T05:54:08;98542.53;;;-6.38;74.50
61484;BME280;47349;55.640;37.692;2023-03-01T05:56:36;98538.06;;;-6.36;74.74
61484;BME280;47349;55.640;37.692;2023-03-01T05:59:04;98551.50;;;-6.42;74.81
61484;BME280;47349;55.640;37.692;2023-03-01T06:01:34;98553.16;;;-6.41;74.91
61484;BME280;47349;55.640;37.692;2023-03-01T06:04:04;98540.22;;;-6.42;74.95
61484;BME280;47349;55.640;37.692;2023-03-01T06:06:35;98537.50;;;-6.41;74.83
61484;BME280;47349;55.640;37.692;2023-03-01T06:09:06;98574.13;;;-6.42;74.64
61484;BME280;47349;55.640;37.692;2023-03-01T06:11:34;98537.25;;;-6.51;74.76
61484;BME280;47349;55.640;37.692;2023-03-01T06:14:10;98556.13;;;-6.33;74.40
61484;BME280;47349;55.640;37.692;2023-03-01T06:16:41;98536.13;;;-6.47;74.81
61484;BME280;47349;55.640;37.692;2023-03-01T06:19:08;98560.97;;;-6.41;74.86
61484;BME280;47349;55.640;37.692;2023-03-01T06:21:35;98547.34;;;-6.32;74.54
61484;BME280;47349;55.640;37.692;2023-03-01T06:24:02;98550.38;;;-6.38;74.52
61484;BME280;47349;55.640;37.692;2023-03-01T06:26:29;98572.50;;;-6.31;74.25
61484;BME280;47349;55.640;37.692;2023-03-01T06:28:57;98563.72;;;-6.30;74.64
61484;BME280;47349;55.640;37.692;2023-03-01T06:31:24;98563.25;;;-6.22;74.10
61484;BME280;47349;55.640;37.692;2023-03-01T06:33:53;98568.16;;;-6.17;74.33
61484;BME280;47349;55.640;37.692;2023-03-01T06:36:21;98552.59;;;-6.19;74.85
61484;BME280;47349;55.640;37.692;2023-03-01T06:38:48;98564.19;;;-6.23;74.95
61484;BME280;47349;55.640;37.692;2023-03-01T06:41:15;98582.34;;;-6.22;75.08
61484;BME280;47349;55.640;37.692;2023-03-01T06:43:42;98560.88;;;-6.12;74.12
61484;BME280;47349;55.640;37.692;2023-03-01T06:46:10;98588.75;;;-6.00;74.37
61484;BME280;47349;55.640;37.692;2023-03-01T06:48:38;98552.81;;;-6.22;74.33
61484;BME280;47349;55.640;37.692;2023-03-01T06:51:19;98575.94;;;-6.03;74.78
61484;BME280;47349;55.640;37.692;2023-03-01T06:53:46;98575.41;;;-6.08;73.64
61484;BME280;47349;55.640;37.692;2023-03-01T06:56:14;98576.66;;;-6.01;74.28
61484;BME280;47349;55.640;37.692;2023-03-01T06:58:42;98574.69;;;-5.98;73.49
61484;BME280;47349;55.640;37.692;2023-03-01T07:01:09;98567.53;;;-5.94;73.92
61484;BME280;47349;55.640;37.692;2023-03-01T07:03:37;98582.69;;;-5.74;73.60
61484;BME280;47349;55.640;37.692;2023-03-01T07:06:04;98574.31;;;-5.79;73.39
61484;BME280;47349;55.640;37.692;2023-03-01T07:08:32;98584.34;;;-5.73;72.95
61484;BME280;47349;55.640;37.692;2023-03-01T07:10:59;98565.34;;;-5.62;72.50
61484;BME280;47349;55.640;37.692;2023-03-01T07:13:28;98555.03;;;-5.63;72.53
61484;BME280;47349;55.640;37.692;2023-03-01T07:16:09;98574.47;;;-5.55;72.96
61484;BME280;47349;55.640;37.692;2023-03-01T07:18:37;98589.59;;;-5.47;72.42
61484;BME280;47349;55.640;37.692;2023-03-01T07:21:05;98589.94;;;-5.39;71.93
61484;BME280;47349;55.640;37.692;2023-03-01T07:23:32;98584.38;;;-5.47;73.17
61484;BME280;47349;55.640;37.692;2023-03-01T07:26:13;98622.06;;;-5.51;72.78
61484;BME280;47349;55.640;37.692;2023-03-01T07:28:54;98600.28;;;-5.37;72.02
61484;BME280;47349;55.640;37.692;2023-03-01T07:31:22;98590.47;;;-5.34;71.80
61484;BME280;47349;55.640;37.692;2023-03-01T07:34:03;98591.63;;;-5.25;72.49
61484;BME280;47349;55.640;37.692;2023-03-01T07:36:31;98599.69;;;-5.15;72.01
61484;BME280;47349;55.640;37.692;2023-03-01T07:38:59;98591.09;;;-5.05;71.92
61484;BME280;47349;55.640;37.692;2023-03-01T07:41:29;98602.81;;;-4.98;72.04
61484;BME280;47349;55.640;37.692;2023-03-01T07:44:07;98595.91;;;-5.11;71.94
61484;BME280;47349;55.640;37.692;2023-03-01T07:46:34;98609.72;;;-4.97;71.71
61484;BME280;47349;55.640;37.692;2023-03-01T07:49:01;98611.78;;;-4.89;71.81
61484;BME280;47349;55.640;37.692;2023-03-01T07:51:28;98599.25;;;-4.84;71.88
61484;BME280;47349;55.640;37.692;2023-03-01T07:53:56;98598.41;;;-4.72;71.98
61484;BME280;47349;55.640;37.692;2023-03-01T07:56:23;98615.13;;;-4.61;71.94
61484;BME280;47349;55.640;37.692;2023-03-01T07:58:51;98605.59;;;-4.62;71.94
61484;BME280;47349;55.640;37.692;2023-03-01T08:01:19;98626.41;;;-4.61;72.04
61484;BME280;47349;55.640;37.692;2023-03-01T08:03:46;98608.22;;;-4.62;72.71
61484;BME280;47349;55.640;37.692;2023-03-01T08:06:14;98601.53;;;-4.67;72.77
61484;BME280;47349;55.640;37.692;2023-03-01T08:08:42;98603.72;;;-4.60;72.63
61484;BME280;47349;55.640;37.692;2023-03-01T08:11:11;98598.78;;;-4.52;72.12
61484;BME280;47349;55.640;37.692;2023-03-01T08:13:38;98618.13;;;-4.55;71.86
61484;BME280;47349;55.640;37.692;2023-03-01T08:16:06;98603.25;;;-4.42;71.91
61484;BME280;47349;55.640;37.692;2023-03-01T08:18:35;98619.03;;;-4.30;71.93
61484;BME280;47349;55.640;37.692;2023-03-01T08:21:03;98620.09;;;-4.33;71.54
61484;BME280;47349;55.640;37.692;2023-03-01T08:23:30;98601.59;;;-4.43;72.19
61484;BME280;47349;55.640;37.692;2023-03-01T08:26:03;98627.22;;;-4.35;72.10
61484;BME280;47349;55.640;37.692;2023-03-01T08:28:30;98616.31;;;-4.29;71.30
61484;BME280;47349;55.640;37.692;2023-03-01T08:30:56;98607.72;;;-4.31;71.26
61484;BME280;47349;55.640;37.692;2023-03-01T08:33:23;98599.81;;;-4.42;71.65
61484;BME280;47349;55.640;37.692;2023-03-01T08:35:51;98626.53;;;-4.26;71.53
61484;BME280;47349;55.640;37.692;2023-03-01T08:38:18;98617.28;;;-4.30;71.26
61484;BME280;47349;55.640;37.692;2023-03-01T08:41:00;98630.09;;;-4.27;71.72
61484;BME280;47349;55.640;37.692;2023-03-01T08:43:27;98627.63;;;-4.28;70.36
61484;BME280;47349;55.640;37.692;2023-03-01T08:45:54;98618.69;;;-4.26;70.78
61484;BME280;47349;55.640;37.692;2023-03-01T08:48:21;98624.66;;;-4.24;70.11
61484;BME280;47349;55.640;37.692;2023-03-01T08:50:49;98625.91;;;-4.17;69.77
61484;BME280;47349;55.640;37.692;2023-03-01T08:53:17;98619.50;;;-4.13;69.69
61484;BME280;47349;55.640;37.692;2023-03-01T08:55:44;98633.22;;;-4.09;69.18
61484;BME280;47349;55.640;37.692;2023-03-01T08:58:13;98620.00;;;-4.07;69.41
61484;BME280;47349;55.640;37.692;2023-03-01T09:00:41;98626.72;;;-4.16;69.73
61484;BME280;47349;55.640;37.692;2023-03-01T09:03:13;98629.53;;;-4.06;69.02
61484;BME280;47349;55.640;37.692;2023-03-01T09:05:40;98646.59;;;-4.01;68.99
61484;BME280;47349;55.640;37.692;2023-03-01T09:08:09;98668.56;;;-4.03;68.60
61484;BME280;47349;55.640;37.692;2023-03-01T09:10:37;98646.16;;;-3.95;68.43
61484;BME280;47349;55.640;37.692;2023-03-01T09:13:05;98641.53;;;-3.91;68.47
61484;BME280;47349;55.640;37.692;2023-03-01T09:15:32;98668.03;;;-3.96;68.65
61484;BME280;47349;55.640;37.692;2023-03-01T09:18:00;98658.72;;;-4.00;69.50
61484;BME280;47349;55.640;37.692;2023-03-01T09:20:28;98644.88;;;-3.89;68.75
61484;BME280;47349;55.640;37.692;2023-03-01T09:22:57;98649.97;;;-3.88;68.18
61484;BME280;47349;55.640;37.692;2023-03-01T09:25:27;98637.13;;;-3.91;68.26
61484;BME280;47349;55.640;37.692;2023-03-01T09:28:09;98700.34;;;-3.97;67.67
61484;BME280;47349;55.640;37.692;2023-03-01T09:30:57;98659.34;;;-3.96;68.12
61484;BME280;47349;55.640;37.692;2023-03-01T09:33:28;98650.38;;;-3.81;67.73
61484;BME280;47349;55.640;37.692;2023-03-01T09:35:57;98651.59;;;-3.74;67.04
61484;BME280;47349;55.640;37.692;2023-03-01T09:38:38;98615.22;;;-3.66;66.94
61484;BME280;47349;55.640;37.692;2023-03-01T09:43:53;98649.41;;;-3.67;68.34
61484;BME280;47349;55.640;37.692;2023-03-01T09:46:40;98655.88;;;-3.73;65.94
61484;BME280;47349;55.640;37.692;2023-03-01T09:49:30;98654.22;;;-3.74;66.74
61484;BME280;47349;55.640;37.692;2023-03-01T09:52:32;98639.78;;;-3.55;67.29
61484;BME280;47349;55.640;37.692;2023-03-01T09:55:20;98627.53;;;-3.55;66.49
61484;BME280;47349;55.640;37.692;2023-03-01T10:00:39;98629.66;;;-3.25;66.07
61484;BME280;47349;55.640;37.692;2023-03-01T10:03:13;98653.66;;;-3.07;65.69
61484;BME280;47349;55.640;37.692;2023-03-01T10:05:47;98645.00;;;-2.85;65.26
61484;BME280;47349;55.640;37.692;2023-03-01T10:10:58;98649.72;;;-3.01;65.57
61484;BME280;47349;55.640;37.692;2023-03-01T10:19:55;98658.91;;;-3.42;66.27
61484;BME280;47349;55.640;37.692;2023-03-01T10:22:18;98666.59;;;-3.28;66.77
61484;BME280;47349;55.640;37.692;2023-03-01T10:25:02;98631.38;;;-3.01;66.68
61484;BME280;47349;55.640;37.692;2023-03-01T10:30:33;98723.31;;;-3.16;65.26
61484;BME280;47349;55.640;37.692;2023-03-01T10:33:02;98677.34;;;-3.44;66.47
61484;BME280;47349;55.640;37.692;2023-03-01T10:35:33;98679.25;;;-3.46;66.06
61484;BME280;47349;55.640;37.692;2023-03-01T10:38:07;98665.59;;;-3.38;66.33
61484;BME280;47349;55.640;37.692;2023-03-01T10:41:05;98722.44;;;-3.51;66.39
61484;BME280;47349;55.640;37.692;2023-03-01T10:46:29;98688.22;;;-3.37;66.62
61484;BME280;47349;55.640;37.692;2023-03-01T10:49:17;98709.19;;;-3.37;66.54
61484;BME280;47349;55.640;37.692;2023-03-01T10:51:48;98698.72;;;-3.26;66.04
61484;BME280;47349;55.640;37.692;2023-03-01T10:54:22;98674.19;;;-3.25;66.10
61484;BME280;47349;55.640;37.692;2023-03-01T10:56:51;98680.41;;;-3.26;65.66
61484;BME280;47349;55.640;37.692;2023-03-01T11:02:02;98679.25;;;-3.46;65.87
61484;BME280;47349;55.640;37.692;2023-03-01T11:04:52;98678.22;;;-3.32;65.81
61484;BME280;47349;55.640;37.692;2023-03-01T11:07:25;98679.84;;;-3.18;65.00
61484;BME280;47349;55.640;37.692;2023-03-01T11:09:52;98722.63;;;-3.06;64.77
61484;BME280;47349;55.640;37.692;2023-03-01T11:12:22;98684.13;;;-3.17;64.61
61484;BME280;47349;55.640;37.692;2023-03-01T11:14:53;98704.34;;;-3.19;64.45
61484;BME280;47349;55.640;37.692;2023-03-01T11:22:37;98676.44;;;-2.96;63.37
61484;BME280;47349;55.640;37.692;2023-03-01T11:25:08;98664.16;;;-2.96;63.92
61484;BME280;47349;55.640;37.692;2023-03-01T11:27:40;98703.09;;;-3.14;63.04
61484;BME280;47349;55.640;37.692;2023-03-01T11:30:44;98682.06;;;-3.25;62.73
61484;BME280;47349;55.640;37.692;2023-03-01T11:35:35;98657.84;;;-3.04;62.24
61484;BME280;47349;55.640;37.692;2023-03-01T11:40:57;98656.97;;;-3.05;63.83
61484;BME280;47349;55.640;37.692;2023-03-01T11:43:28;98679.09;;;-2.85;63.47
61484;BME280;47349;55.640;37.692;2023-03-01T11:51:18;98663.41;;;-2.40;62.19
61484;BME280;47349;55.640;37.692;2023-03-01T11:56:30;98665.53;;;-2.34;61.29
61484;BME280;47349;55.640;37.692;2023-03-01T12:04:40;98677.97;;;-2.36;60.99
61484;BME280;47349;55.640;37.692;2023-03-01T12:12:42;98705.00;;;-2.58;59.80
61484;BME280;47349;55.640;37.692;2023-03-01T12:18:02;98697.97;;;-2.58;59.78
61484;BME280;47349;55.640;37.692;2023-03-01T12:26:02;98707.13;;;-2.63;60.11
61484;BME280;47349;55.640;37.692;2023-03-01T12:31:14;98675.66;;;-2.52;60.03
61484;BME280;47349;55.640;37.692;2023-03-01T12:44:11;98685.84;;;-2.36;59.69
61484;BME280;47349;55.640;37.692;2023-03-01T12:49:20;98684.88;;;-2.24;59.85
61484;BME280;47349;55.640;37.692;2023-03-01T12:52:11;98688.22;;;-2.11;59.45
61484;BME280;47349;55.640;37.692;2023-03-01T12:54:36;98665.75;;;-2.03;59.36
61484;BME280;47349;55.640;37.692;2023-03-01T13:02:31;98690.00;;;-2.34;57.31
61484;BME280;47349;55.640;37.692;2023-03-01T13:05:36;98696.91;;;-2.10;56.96
61484;BME280;47349;55.640;37.692;2023-03-01T13:10:49;98698.25;;;-2.27;58.12
61484;BME280;47349;55.640;37.692;2023-03-01T13:13:21;98688.56;;;-2.38;58.40
61484;BME280;47349;55.640;37.692;2023-03-01T13:15:49;98685.94;;;-2.49;59.19
61484;BME280;47349;55.640;37.692;2023-03-01T13:20:50;98667.78;;;-2.63;60.52
61484;BME280;47349;55.640;37.692;2023-03-01T13:31:09;98688.16;;;-2.89;61.84
61484;BME280;47349;55.640;37.692;2023-03-01T13:33:40;98672.63;;;-2.92;62.18
61484;BME280;47349;55.640;37.692;2023-03-01T13:36:11;98672.63;;;-2.92;62.65
61484;BME280;47349;55.640;37.692;2023-03-01T13:39:01;98725.25;;;-3.06;62.75
61484;BME280;47349;55.640;37.692;2023-03-01T13:46:50;98682.78;;;-3.23;64.05
61484;BME280;47349;55.640;37.692;2023-03-01T13:49:19;98688.03;;;-3.23;64.24
61484;BME280;47349;55.640;37.692;2023-03-01T13:51:51;98675.38;;;-3.29;64.84
61484;BME280;47349;55.640;37.692;2023-03-01T13:54:26;98675.28;;;-3.27;63.03
61484;BME280;47349;55.640;37.692;2023-03-01T13:56:56;98669.91;;;-3.26;63.02
61484;BME280;47349;55.640;37.692;2023-03-01T13:59:26;98683.97;;;-3.27;63.39
61484;BME280;47349;55.640;37.692;2023-03-01T14:01:57;98680.19;;;-3.47;63.79
61484;BME280;47349;55.640;37.692;2023-03-01T14:04:38;98648.66;;;-3.45;64.22
61484;BME280;47349;55.640;37.692;2023-03-01T14:09:39;98675.28;;;-3.51;65.73
61484;BME280;47349;55.640;37.692;2023-03-01T14:14:39;98667.66;;;-3.54;65.24
61484;BME280;47349;55.640;37.692;2023-03-01T14:19:36;98658.34;;;-3.58;65.12
61484;BME280;47349;55.640;37.692;2023-03-01T14:22:10;98674.88;;;-3.58;65.33
61484;BME280;47349;55.640;37.692;2023-03-01T14:24:40;98654.72;;;-3.69;64.92
61484;BME280;47349;55.640;37.692;2023-03-01T14:27:37;98690.66;;;-3.71;64.61
61484;BME280;47349;55.640;37.692;2023-03-01T14:30:31;98676.13;;;-3.75;65.38
61484;BME280;47349;55.640;37.692;2023-03-01T14:33:01;98663.03;;;-3.75;64.47
61484;BME280;47349;55.640;37.692;2023-03-01T14:35:29;98668.06;;;-3.72;64.81
61484;BME280;47349;55.640;37.692;2023-03-01T14:37:57;98642.72;;;-3.71;65.25
61484;BME280;47349;55.640;37.692;2023-03-01T14:40:27;98661.13;;;-3.73;65.42
61484;BME280;47349;55.640;37.692;2023-03-01T14:42:55;98666.59;;;-3.76;65.52
61484;BME280;47349;55.640;37.692;2023-03-01T14:45:25;98639.97;;;-3.70;65.55
61484;BME280;47349;55.640;37.692;2023-03-01T14:47:53;98643.03;;;-3.76;65.31
61484;BME280;47349;55.640;37.692;2023-03-01T14:50:27;98644.69;;;-3.75;65.53
61484;BME280;47349;55.640;37.692;2023-03-01T14:53:01;98633.94;;;-3.83;66.12
61484;BME280;47349;55.640;37.692;2023-03-01T14:55:44;98631.13;;;-3.80;66.80
61484;BME280;47349;55.640;37.692;2023-03-01T14:58:15;98636.13;;;-3.77;66.67
61484;BME280;47349;55.640;37.692;2023-03-01T15:00:51;98638.75;;;-3.77;66.88
61484;BME280;47349;55.640;37.692;2023-03-01T15:03:24;98642.09;;;-3.75;66.51
61484;BME280;47349;55.640;37.692;2023-03-01T15:05:52;98636.41;;;-3.69;66.74
61484;BME280;47349;55.640;37.692;2023-03-01T15:08:21;98632.00;;;-3.68;66.58
61484;BME280;47349;55.640;37.692;2023-03-01T15:13:29;98649.59;;;-3.70;67.38
61484;BME280;47349;55.640;37.692;2023-03-01T15:16:10;98660.28;;;-3.73;68.91